sensor_id;sensor_type;location;lat;lon;timestamp;P1;durP1;ratioP1;P2;durP2;ratioP2
51216;SDS011;37283;49.760;8.648;2022-07-30T06:01:57;7.10;;;3.67;;
51216;SDS011;37283;49.760;8.648;2022-07-30T06:04:32;8.68;;;4.35;;
51216;SDS011;37283;49.760;8.648;2022-07-30T06:07:03;6.70;;;4.20;;
51216;SDS011;37283;49.760;8.648;2022-07-30T06:09:39;7.18;;;3.72;;
51216;SDS011;37283;49.760;8.648;2022-07-30T06:12:08;9.52;;;4.13;;
51216;SDS011;37283;49.760;8.648;2022-07-30T06:14:35;7.65;;;3.80;;
51216;SDS011;37283;49.760;8.648;2022-07-30T06:17:03;6.97;;;4.20;;
51216;SDS011;37283;49.760;8.648;2022-07-30T06:19:48;5.90;;;3.60;;
51216;SDS011;37283;49.760;8.648;2022-07-30T06:22:16;8.40;;;3.75;;
51216;SDS011;37283;49.760;8.648;2022-07-30T06:24:47;5.75;;;3.72;;
51216;SDS011;37283;49.760;8.648;2022-07-30T06:27:20;6.50;;;4.13;;
51216;SDS011;37283;49.760;8.648;2022-07-30T06:29:47;7.57;;;4.13;;
51216;SDS011;37283;49.760;8.648;2022-07-30T06:32:14;8.43;;;4.28;;
51216;SDS011;37283;49.760;8.648;2022-07-30T06:34:41;6.72;;;4.00;;
51216;SDS011;37283;49.760;8.648;2022-07-30T06:37:07;7.25;;;4.22;;
51216;SDS011;37283;49.760;8.648;2022-07-30T06:39:37;8.80;;;3.78;;
51216;SDS011;37283;49.760;8.648;2022-07-30T06:42:38;8.02;;;4.07;;
51216;SDS011;37283;49.760;8.648;2022-07-30T06:45:23;13.25;;;4.20;;
51216;SDS011;37283;49.760;8.648;2022-07-30T06:48:14;8.00;;;4.15;;
51216;SDS011;37283;49.760;8.648;2022-07-30T06:50:41;8.60;;;3.63;;
51216;SDS011;37283;49.760;8.648;2022-07-30T06:53:09;7.03;;;3.80;;
51216;SDS011;37283;49.760;8.648;2022-07-30T06:55:56;6.53;;;3.47;;
51216;SDS011;37283;49.760;8.648;2022-07-30T06:58:32;6.80;;;3.80;;
51216;SDS011;37283;49.760;8.648;2022-07-30T07:01:17;5.85;;;3.35;;
51216;SDS011;37283;49.760;8.648;2022-07-30T07:03:44;8.55;;;4.25;;
51216;SDS011;37283;49.760;8.648;2022-07-30T07:06:10;8.45;;;4.40;;
51216;SDS011;37283;49.760;8.648;2022-07-30T07:08:37;8.23;;;4.07;;
51216;SDS011;37283;49.760;8.648;2022-07-30T07:11:06;10.38;;;4.50;;
51216;SDS011;37283;49.760;8.648;2022-07-30T07:13:43;7.50;;;3.75;;
51216;SDS011;37283;49.760;8.648;2022-07-30T07:16:16;11.00;;;4.25;;
51216;SDS011;37283;49.760;8.648;2022-07-30T07:18:47;9.73;;;4.45;;
51216;SDS011;37283;49.760;8.648;2022-07-30T07:21:14;8.73;;;4.07;;
51216;SDS011;37283;49.760;8.648;2022-07-30T07:23:41;7.60;;;4.00;;
51216;SDS011;37283;49.760;8.648;2022-07-30T07:26:28;7.25;;;4.28;;
51216;SDS011;37283;49.760;8.648;2022-07-30T07:28:58;7.65;;;4.68;;
51216;SDS011;37283;49.760;8.648;2022-07-30T07:31:36;7.15;;;4.35;;
51216;SDS011;37283;49.760;8.648;2022-07-30T07:34:30;8.20;;;4.80;;
51216;SDS011;37283;49.760;8.648;2022-07-30T07:37:09;9.32;;;4.80;;
51216;SDS011;37283;49.760;8.648;2022-07-30T07:39:36;15.57;;;5.28;;
51216;SDS011;37283;49.760;8.648;2022-07-30T07:42:07;8.07;;;4.78;;
51216;SDS011;37283;49.760;8.648;2022-07-30T07:44:42;7.22;;;5.05;;
51216;SDS011;37283;49.760;8.648;2022-07-30T07:47:20;9.38;;;5.55;;
51216;SDS011;37283;49.760;8.648;2022-07-30T07:50:02;10.52;;;5.65;;
51216;SDS011;37283;49.760;8.648;2022-07-30T07:52:42;9.20;;;5.43;;
51216;SDS011;37283;49.760;8.648;2022-07-30T07:55:09;10.75;;;4.82;;
51216;SDS011;37283;49.760;8.648;2022-07-30T07:57:37;12.20;;;5.60;;
51216;SDS011;37283;49.760;8.648;2022-07-30T08:00:06;10.05;;;5.10;;
51216;SDS011;37283;49.760;8.648;2022-07-30T08:02:49;9.37;;;5.63;;
51216;SDS011;37283;49.760;8.648;2022-07-30T08:05:17;9.48;;;5.65;;
51216;SDS011;37283;49.760;8.648;2022-07-30T08:08:04;11.52;;;5.97;;
51216;SDS011;37283;49.760;8.648;2022-07-30T08:10:49;11.20;;;5.63;;
51216;SDS011;37283;49.760;8.648;2022-07-30T08:13:37;10.48;;;5.18;;
51216;SDS011;37283;49.760;8.648;2022-07-30T08:16:53;13.00;;;5.28;;
51216;SDS011;37283;49.760;8.648;2022-07-30T08:19:51;9.90;;;6.03;;
51216;SDS011;37283;49.760;8.648;2022-07-30T08:24:50;9.27;;;5.03;;
51216;SDS011;37283;49.760;8.648;2022-07-30T08:27:19;10.55;;;6.32;;
51216;SDS011;37283;49.760;8.648;2022-07-30T08:29:45;9.93;;;5.78;;
51216;SDS011;37283;49.760;8.648;2022-07-30T08:32:14;9.82;;;5.32;;
51216;SDS011;37283;49.760;8.648;2022-07-30T08:34:44;10.93;;;6.00;;
51216;SDS011;37283;49.760;8.648;2022-07-30T08:37:12;11.48;;;5.93;;
51216;SDS011;37283;49.760;8.648;2022-07-30T08:39:39;8.13;;;5.50;;
51216;SDS011;37283;49.760;8.648;2022-07-30T08:42:06;9.27;;;5.40;;
51216;SDS011;37283;49.760;8.648;2022-07-30T08:44:34;10.85;;;6.20;;
51216;SDS011;37283;49.760;8.648;2022-07-30T08:47:02;12.07;;;6.20;;
51216;SDS011;37283;49.760;8.648;2022-07-30T08:49:50;12.05;;;5.88;;
51216;SDS011;37283;49.760;8.648;2022-07-30T08:52:23;10.40;;;6.30;;
51216;SDS011;37283;49.760;8.648;2022-07-30T08:54:58;10.07;;;5.63;;
51216;SDS011;37283;49.760;8.648;2022-07-30T08:57:30;11.02;;;5.93;;
51216;SDS011;37283;49.760;8.648;2022-07-30T08:59:58;10.23;;;6.30;;
51216;SDS011;37283;49.760;8.648;2022-07-30T09:02:29;9.90;;;6.53;;
51216;SDS011;37283;49.760;8.648;2022-07-30T09:05:03;9.75;;;5.43;;
51216;SDS011;37283;49.760;8.648;2022-07-30T09:07:35;11.25;;;6.47;;
51216;SDS011;37283;49.760;8.648;2022-07-30T09:10:11;11.77;;;6.80;;
51216;SDS011;37283;49.760;8.648;2022-07-30T09:15:12;13.88;;;7.65;;
51216;SDS011;37283;49.760;8.648;2022-07-30T09:17:44;11.50;;;6.75;;
51216;SDS011;37283;49.760;8.648;2022-07-30T09:20:21;9.43;;;5.57;;
51216;SDS011;37283;49.760;8.648;2022-07-30T09:22:53;10.02;;;5.75;;
51216;SDS011;37283;49.760;8.648;2022-07-30T09:25:46;8.55;;;5.90;;
51216;SDS011;37283;49.760;8.648;2022-07-30T09:28:35;6.22;;;3.50;;
51216;SDS011;37283;49.760;8.648;2022-07-30T09:31:12;10.70;;;4.90;;
51216;SDS011;37283;49.760;8.648;2022-07-30T09:33:57;8.05;;;4.60;;
51216;SDS011;37283;49.760;8.648;2022-07-30T09:36:42;8.32;;;4.50;;
51216;SDS011;37283;49.760;8.648;2022-07-30T09:39:34;5.78;;;3.95;;
51216;SDS011;37283;49.760;8.648;2022-07-30T09:42:31;9.63;;;3.95;;
51216;SDS011;37283;49.760;8.648;2022-07-30T09:45:06;9.80;;;4.60;;
51216;SDS011;37283;49.760;8.648;2022-07-30T09:50:53;7.38;;;4.00;;
51216;SDS011;37283;49.760;8.648;2022-07-30T09:53:23;10.13;;;3.80;;
51216;SDS011;37283;49.760;8.648;2022-07-30T09:55:50;7.30;;;3.22;;
51216;SDS011;37283;49.760;8.648;2022-07-30T09:58:18;6.47;;;3.60;;
51216;SDS011;37283;49.760;8.648;2022-07-30T10:00:56;8.60;;;3.30;;
51216;SDS011;37283;49.760;8.648;2022-07-30T10:03:44;11.02;;;3.22;;
51216;SDS011;37283;49.760;8.648;2022-07-30T10:06:41;8.82;;;3.70;;
51216;SDS011;37283;49.760;8.648;2022-07-30T10:09:27;6.45;;;3.00;;
51216;SDS011;37283;49.760;8.648;2022-07-30T10:12:04;5.30;;;3.05;;
51216;SDS011;37283;49.760;8.648;2022-07-30T10:14:37;6.72;;;2.97;;
51216;SDS011;37283;49.760;8.648;2022-07-30T10:17:11;4.70;;;2.70;;
51216;SDS011;37283;49.760;8.648;2022-07-30T10:19:40;5.18;;;2.58;;
51216;SDS011;37283;49.760;8.648;2022-07-30T10:22:40;5.43;;;2.42;;
51216;SDS011;37283;49.760;8.648;2022-07-30T10:25:23;5.53;;;2.35;;
51216;SDS011;37283;49.760;8.648;2022-07-30T10:28:11;4.43;;;1.88;;
51216;SDS011;37283;49.760;8.648;2022-07-30T10:30:47;6.82;;;2.50;;
51216;SDS011;37283;49.760;8.648;2022-07-30T10:33:17;4.57;;;1.95;;
51216;SDS011;37283;49.760;8.648;2022-07-30T10:36:03;3.65;;;1.90;;
51216;SDS011;37283;49.760;8.648;2022-07-30T10:38:30;6.38;;;2.00;;
51216;SDS011;37283;49.760;8.648;2022-07-30T10:41:06;10.18;;;2.50;;
51216;SDS011;37283;49.760;8.648;2022-07-30T10:47:00;7.72;;;2.83;;
51216;SDS011;37283;49.760;8.648;2022-07-30T10:49:33;5.53;;;2.42;;
51216;SDS011;37283;49.760;8.648;2022-07-30T10:52:08;4.43;;;1.83;;
51216;SDS011;37283;49.760;8.648;2022-07-30T10:54:36;4.80;;;2.40;;
51216;SDS011;37283;49.760;8.648;2022-07-30T10:57:17;4.40;;;1.92;;
51216;SDS011;37283;49.760;8.648;2022-07-30T11:02:29;4.30;;;2.10;;
51216;SDS011;37283;49.760;8.648;2022-07-30T11:11:03;7.00;;;2.00;;
51216;SDS011;37283;49.760;8.648;2022-07-30T11:14:20;6.28;;;2.08;;
51216;SDS011;37283;49.760;8.648;2022-07-30T11:19:26;3.25;;;2.10;;
51216;SDS011;37283;49.760;8.648;2022-07-30T11:22:24;6.78;;;1.80;;
51216;SDS011;37283;49.760;8.648;2022-07-30T11:27:42;4.20;;;1.67;;
51216;SDS011;37283;49.760;8.648;2022-07-30T11:32:42;7.13;;;1.60;;
51216;SDS011;37283;49.760;8.648;2022-07-30T11:46:13;4.45;;;1.85;;
51216;SDS011;37283;49.760;8.648;2022-07-30T11:48:56;4.20;;;1.70;;
51216;SDS011;37283;49.760;8.648;2022-07-30T11:51:41;4.78;;;1.85;;
51216;SDS011;37283;49.760;8.648;2022-07-30T11:54:09;3.55;;;1.50;;
51216;SDS011;37283;49.760;8.648;2022-07-30T11:56:46;5.07;;;1.50;;
51216;SDS011;37283;49.760;8.648;2022-07-30T11:59:13;6.00;;;1.63;;
51216;SDS011;37283;49.760;8.648;2022-07-30T12:04:33;6.03;;;1.70;;
51216;SDS011;37283;49.760;8.648;2022-07-30T12:07:08;2.85;;;1.80;;
51216;SDS011;37283;49.760;8.648;2022-07-30T12:09:35;7.70;;;1.55;;
51216;SDS011;37283;49.760;8.648;2022-07-30T12:12:02;3.42;;;1.50;;
51216;SDS011;37283;49.760;8.648;2022-07-30T12:14:48;6.18;;;1.85;;
51216;SDS011;37283;49.760;8.648;2022-07-30T12:17:15;5.75;;;1.65;;
51216;SDS011;37283;49.760;8.648;2022-07-30T12:19:46;5.68;;;2.08;;
51216;SDS011;37283;49.760;8.648;2022-07-30T12:22:13;4.88;;;1.80;;
51216;SDS011;37283;49.760;8.648;2022-07-30T12:24:40;3.80;;;1.25;;
51216;SDS011;37283;49.760;8.648;2022-07-30T12:27:06;3.13;;;1.13;;
51216;SDS011;37283;49.760;8.648;2022-07-30T12:29:47;3.25;;;1.40;;
51216;SDS011;37283;49.760;8.648;2022-07-30T12:32:16;2.95;;;1.45;;
51216;SDS011;37283;49.760;8.648;2022-07-30T12:34:52;3.25;;;1.20;;
51216;SDS011;37283;49.760;8.648;2022-07-30T12:37:22;3.47;;;1.60;;
51216;SDS011;37283;49.760;8.648;2022-07-30T12:39:49;2.75;;;1.25;;
51216;SDS011;37283;49.760;8.648;2022-07-30T12:42:52;2.38;;;1.13;;
51216;SDS011;37283;49.760;8.648;2022-07-30T12:48:20;3.38;;;1.35;;
51216;SDS011;37283;49.760;8.648;2022-07-30T12:50:47;5.50;;;1.30;;
51216;SDS011;37283;49.760;8.648;2022-07-30T12:53:13;3.58;;;1.38;;
51216;SDS011;37283;49.760;8.648;2022-07-30T12:55:40;2.38;;;1.20;;
51216;SDS011;37283;49.760;8.648;2022-07-30T12:58:06;4.82;;;1.33;;
51216;SDS011;37283;49.760;8.648;2022-07-30T13:00:46;2.25;;;1.20;;
51216;SDS011;37283;49.760;8.648;2022-07-30T13:03:24;2.85;;;1.27;;
51216;SDS011;37283;49.760;8.648;2022-07-30T13:05:53;3.65;;;1.40;;
51216;SDS011;37283;49.760;8.648;2022-07-30T13:11:15;4.50;;;1.38;;
51216;SDS011;37283;49.760;8.648;2022-07-30T13:13:42;4.28;;;1.40;;
51216;SDS011;37283;49.760;8.648;2022-07-30T13:16:12;3.08;;;1.20;;
51216;SDS011;37283;49.760;8.648;2022-07-30T13:18:45;4.05;;;1.48;;
51216;SDS011;37283;49.760;8.648;2022-07-30T13:21:12;4.22;;;1.40;;
51216;SDS011;37283;49.760;8.648;2022-07-30T13:23:39;4.78;;;1.15;;
51216;SDS011;37283;49.760;8.648;2022-07-30T13:26:08;2.38;;;1.20;;
51216;SDS011;37283;49.760;8.648;2022-07-30T13:28:35;3.72;;;1.40;;
51216;SDS011;37283;49.760;8.648;2022-07-30T13:31:02;2.72;;;1.38;;
51216;SDS011;37283;49.760;8.648;2022-07-30T13:33:29;2.95;;;1.10;;
51216;SDS011;37283;49.760;8.648;2022-07-30T13:35:55;4.88;;;1.50;;
51216;SDS011;37283;49.760;8.648;2022-07-30T13:38:22;2.45;;;1.15;;
51216;SDS011;37283;49.760;8.648;2022-07-30T13:40:49;3.55;;;1.30;;
51216;SDS011;37283;49.760;8.648;2022-07-30T13:43:15;5.72;;;1.30;;
51216;SDS011;37283;49.760;8.648;2022-07-30T13:45:45;3.97;;;1.20;;
51216;SDS011;37283;49.760;8.648;2022-07-30T13:48:31;2.75;;;1.10;;
51216;SDS011;37283;49.760;8.648;2022-07-30T13:50:59;3.70;;;1.13;;
51216;SDS011;37283;49.760;8.648;2022-07-30T13:53:25;1.83;;;1.00;;
51216;SDS011;37283;49.760;8.648;2022-07-30T13:55:56;3.05;;;1.33;;
51216;SDS011;37283;49.760;8.648;2022-07-30T13:58:38;2.83;;;1.05;;
51216;SDS011;37283;49.760;8.648;2022-07-30T14:01:05;2.38;;;1.10;;
51216;SDS011;37283;49.760;8.648;2022-07-30T14:03:32;2.10;;;1.10;;
51216;SDS011;37283;49.760;8.648;2022-07-30T14:05:59;2.70;;;1.45;;
51216;SDS011;37283;49.760;8.648;2022-07-30T14:08:37;2.67;;;1.00;;
51216;SDS011;37283;49.760;8.648;2022-07-30T14:11:03;5.18;;;1.02;;
51216;SDS011;37283;49.760;8.648;2022-07-30T14:13:30;2.97;;;1.10;;
51216;SDS011;37283;49.760;8.648;2022-07-30T14:16:06;1.55;;;0.77;;
51216;SDS011;37283;49.760;8.648;2022-07-30T14:19:22;3.03;;;1.42;;
51216;SDS011;37283;49.760;8.648;2022-07-30T14:21:50;3.55;;;1.20;;
51216;SDS011;37283;49.760;8.648;2022-07-30T14:24:18;1.92;;;1.10;;
51216;SDS011;37283;49.760;8.648;2022-07-30T14:26:47;3.38;;;1.17;;
51216;SDS011;37283;49.760;8.648;2022-07-30T14:29:14;2.45;;;1.10;;
51216;SDS011;37283;49.760;8.648;2022-07-30T14:31:40;6.20;;;1.25;;
51216;SDS011;37283;49.760;8.648;2022-07-30T14:34:07;2.60;;;1.10;;
51216;SDS011;37283;49.760;8.648;2022-07-30T14:36:34;1.52;;;0.90;;
51216;SDS011;37283;49.760;8.648;2022-07-30T14:39:02;5.05;;;1.27;;
51216;SDS011;37283;49.760;8.648;2022-07-30T14:41:35;3.22;;;0.98;;
51216;SDS011;37283;49.760;8.648;2022-07-30T14:44:04;4.40;;;1.48;;
51216;SDS011;37283;49.760;8.648;2022-07-30T14:49:27;6.13;;;1.08;;
51216;SDS011;37283;49.760;8.648;2022-07-30T14:52:05;4.63;;;1.15;;
51216;SDS011;37283;49.760;8.648;2022-07-30T14:54:35;2.20;;;1.40;;
51216;SDS011;37283;49.760;8.648;2022-07-30T14:57:30;3.45;;;1.35;;
51216;SDS011;37283;49.760;8.648;2022-07-30T15:00:23;3.72;;;1.40;;
51216;SDS011;37283;49.760;8.648;2022-07-30T15:03:17;3.00;;;1.10;;
51216;SDS011;37283;49.760;8.648;2022-07-30T15:05:48;2.60;;;1.38;;
51216;SDS011;37283;49.760;8.648;2022-07-30T15:08:18;2.78;;;1.40;;
51216;SDS011;37283;49.760;8.648;2022-07-30T15:10:58;5.18;;;1.48;;
51216;SDS011;37283;49.760;8.648;2022-07-30T15:13:33;2.97;;;1.30;;
51216;SDS011;37283;49.760;8.648;2022-07-30T15:16:04;3.17;;;1.20;;
51216;SDS011;37283;49.760;8.648;2022-07-30T15:18:36;3.70;;;1.20;;
51216;SDS011;37283;49.760;8.648;2022-07-30T15:21:02;2.72;;;1.15;;
51216;SDS011;37283;49.760;8.648;2022-07-30T15:23:30;3.35;;;1.35;;
51216;SDS011;37283;49.760;8.648;2022-07-30T15:25:57;4.35;;;1.42;;
51216;SDS011;37283;49.760;8.648;2022-07-30T15:28:25;2.47;;;1.35;;
51216;SDS011;37283;49.760;8.648;2022-07-30T15:34:00;2.55;;;1.38;;
51216;SDS011;37283;49.760;8.648;2022-07-30T15:36:26;4.35;;;1.63;;
51216;SDS011;37283;49.760;8.648;2022-07-30T15:38:53;4.97;;;1.20;;
51216;SDS011;37283;49.760;8.648;2022-07-30T15:41:28;3.17;;;1.35;;
51216;SDS011;37283;49.760;8.648;2022-07-30T15:44:03;2.40;;;1.15;;
51216;SDS011;37283;49.760;8.648;2022-07-30T15:46:35;4.18;;;1.20;;
51216;SDS011;37283;49.760;8.648;2022-07-30T15:49:02;2.78;;;1.27;;
51216;SDS011;37283;49.760;8.648;2022-07-30T15:51:49;2.72;;;1.20;;
51216;SDS011;37283;49.760;8.648;2022-07-30T15:54:23;2.72;;;1.40;;
51216;SDS011;37283;49.760;8.648;2022-07-30T15:56:50;3.35;;;1.20;;
51216;SDS011;37283;49.760;8.648;2022-07-30T15:59:17;2.55;;;1.30;;
51216;SDS011;37283;49.760;8.648;2022-07-30T16:01:49;3.28;;;1.35;;
51216;SDS011;37283;49.760;8.648;2022-07-30T16:04:34;3.88;;;1.92;;
51216;SDS011;37283;49.760;8.648;2022-07-30T16:07:19;3.97;;;1.35;;
51216;SDS011;37283;49.760;8.648;2022-07-30T16:09:48;3.58;;;1.30;;
51216;SDS011;37283;49.760;8.648;2022-07-30T16:12:40;1.95;;;1.02;;
51216;SDS011;37283;49.760;8.648;2022-07-30T16:15:08;3.67;;;1.40;;
51216;SDS011;37283;49.760;8.648;2022-07-30T16:17:38;3.03;;;1.08;;
51216;SDS011;37283;49.760;8.648;2022-07-30T16:20:17;2.55;;;1.10;;
51216;SDS011;37283;49.760;8.648;2022-07-30T16:22:45;3.28;;;1.27;;
51216;SDS011;37283;49.760;8.648;2022-07-30T16:25:12;4.57;;;1.42;;
51216;SDS011;37283;49.760;8.648;2022-07-30T16:27:39;3.65;;;1.30;;
51216;SDS011;37283;49.760;8.648;2022-07-30T16:30:09;2.85;;;1.23;;
51216;SDS011;37283;49.760;8.648;2022-07-30T16:32:43;14.77;;;9.10;;
51216;SDS011;37283;49.760;8.648;2022-07-30T16:35:12;2.78;;;1.88;;
51216;SDS011;37283;49.760;8.648;2022-07-30T16:38:00;2.42;;;1.40;;
51216;SDS011;37283;49.760;8.648;2022-07-30T16:40:29;3.97;;;1.40;;
51216;SDS011;37283;49.760;8.648;2022-07-30T16:42:59;2.35;;;1.38;;
51216;SDS011;37283;49.760;8.648;2022-07-30T16:45:26;5.28;;;1.50;;
51216;SDS011;37283;49.760;8.648;2022-07-30T16:47:53;3.35;;;1.20;;
51216;SDS011;37283;49.760;8.648;2022-07-30T16:50:26;2.05;;;1.27;;
51216;SDS011;37283;49.760;8.648;2022-07-30T16:52:52;2.45;;;1.20;;
51216;SDS011;37283;49.760;8.648;2022-07-30T16:55:19;3.00;;;1.83;;
51216;SDS011;37283;49.760;8.648;2022-07-30T16:57:45;3.38;;;1.20;;
51216;SDS011;37283;49.760;8.648;2022-07-30T17:00:12;3.08;;;1.35;;
51216;SDS011;37283;49.760;8.648;2022-07-30T17:02:39;1.63;;;1.27;;
51216;SDS011;37283;49.760;8.648;2022-07-30T17:05:11;3.60;;;1.55;;
51216;SDS011;37283;49.760;8.648;2022-07-30T17:07:44;2.80;;;1.48;;
51216;SDS011;37283;49.760;8.648;2022-07-30T17:10:16;3.95;;;1.50;;
51216;SDS011;37283;49.760;8.648;2022-07-30T17:12:52;3.33;;;1.60;;
51216;SDS011;37283;49.760;8.648;2022-07-30T17:15:18;3.03;;;1.20;;
51216;SDS011;37283;49.760;8.648;2022-07-30T17:17:57;3.60;;;1.30;;
51216;SDS011;37283;49.760;8.648;2022-07-30T17:20:24;3.35;;;1.20;;
51216;SDS011;37283;49.760;8.648;2022-07-30T17:22:50;6.18;;;1.80;;
51216;SDS011;37283;49.760;8.648;2022-07-30T17:25:20;2.40;;;0.98;;
51216;SDS011;37283;49.760;8.648;2022-07-30T17:27:47;1.90;;;1.10;;
51216;SDS011;37283;49.760;8.648;2022-07-30T17:30:14;1.38;;;1.10;;
51216;SDS011;37283;49.760;8.648;2022-07-30T17:32:40;1.58;;;1.00;;
51216;SDS011;37283;49.760;8.648;2022-07-30T17:35:07;2.38;;;1.08;;
51216;SDS011;37283;49.760;8.648;2022-07-30T17:37:39;4.07;;;1.40;;
51216;SDS011;37283;49.760;8.648;2022-07-30T17:40:05;2.92;;;1.70;;
51216;SDS011;37283;49.760;8.648;2022-07-30T17:42:52;2.95;;;1.30;;
51216;SDS011;37283;49.760;8.648;2022-07-30T17:45:19;1.67;;;0.90;;
51216;SDS011;37283;49.760;8.648;2022-07-30T17:47:45;1.95;;;1.00;;
51216;SDS011;37283;49.760;8.648;2022-07-30T17:50:12;2.28;;;1.33;;
51216;SDS011;37283;49.760;8.648;2022-07-30T17:52:39;1.50;;;0.98;;
51216;SDS011;37283;49.760;8.648;2022-07-30T17:55:06;1.52;;;0.90;;
51216;SDS011;37283;49.760;8.648;2022-07-30T17:57:36;3.22;;;1.20;;
51216;SDS011;37283;49.760;8.648;2022-07-30T18:00:03;2.67;;;1.20;;
51216;SDS011;37283;49.760;8.648;2022-07-30T18:02:30;1.88;;;1.17;;
51216;SDS011;37283;49.760;8.648;2022-07-30T18:04:56;4.55;;;1.60;;
51216;SDS011;37283;49.760;8.648;2022-07-30T18:07:23;2.97;;;1.40;;
51216;SDS011;37283;49.760;8.648;2022-07-30T18:09:49;3.70;;;1.33;;
51216;SDS011;37283;49.760;8.648;2022-07-30T18:12:16;1.38;;;1.00;;
51216;SDS011;37283;49.760;8.648;2022-07-30T18:14:43;2.53;;;1.13;;
51216;SDS011;37283;49.760;8.648;2022-07-30T18:17:09;2.88;;;1.25;;
51216;SDS011;37283;49.760;8.648;2022-07-30T18:19:39;1.52;;;1.30;;
51216;SDS011;37283;49.760;8.648;2022-07-30T18:22:06;2.70;;;1.75;;
51216;SDS011;37283;49.760;8.648;2022-07-30T18:24:32;2.50;;;1.50;;
51216;SDS011;37283;49.760;8.648;2022-07-30T18:27:05;3.78;;;1.33;;
51216;SDS011;37283;49.760;8.648;2022-07-30T18:29:32;2.60;;;1.50;;
51216;SDS011;37283;49.760;8.648;2022-07-30T18:31:59;4.82;;;1.60;;
51216;SDS011;37283;49.760;8.648;2022-07-30T18:34:26;4.00;;;2.25;;
51216;SDS011;37283;49.760;8.648;2022-07-30T18:36:52;1.80;;;1.17;;
51216;SDS011;37283;49.760;8.648;2022-07-30T18:39:19;1.55;;;1.15;;
51216;SDS011;37283;49.760;8.648;2022-07-30T18:41:45;1.38;;;1.00;;
51216;SDS011;37283;49.760;8.648;2022-07-30T18:44:12;3.22;;;1.52;;
51216;SDS011;37283;49.760;8.648;2022-07-30T18:46:38;2.13;;;1.27;;
51216;SDS011;37283;49.760;8.648;2022-07-30T18:49:05;3.33;;;1.33;;
51216;SDS011;37283;49.760;8.648;2022-07-30T18:51:51;1.92;;;1.20;;
51216;SDS011;37283;49.760;8.648;2022-07-30T18:54:18;3.25;;;1.45;;
51216;SDS011;37283;49.760;8.648;2022-07-30T18:56:44;1.98;;;1.20;;
51216;SDS011;37283;49.760;8.648;2022-07-30T18:59:11;3.97;;;1.50;;
51216;SDS011;37283;49.760;8.648;2022-07-30T19:01:37;2.55;;;1.50;;
51216;SDS011;37283;49.760;8.648;2022-07-30T19:04:04;3.30;;;1.58;;
51216;SDS011;37283;49.760;8.648;2022-07-30T19:06:31;3.65;;;1.35;;
51216;SDS011;37283;49.760;8.648;2022-07-30T19:08:58;2.42;;;1.38;;
51216;SDS011;37283;49.760;8.648;2022-07-30T19:11:25;2.22;;;1.40;;
51216;SDS011;37283;49.760;8.648;2022-07-30T19:13:51;2.65;;;1.50;;
51216;SDS011;37283;49.760;8.648;2022-07-30T19:16:18;3.65;;;1.55;;
51216;SDS011;37283;49.760;8.648;2022-07-30T19:18:45;3.00;;;1.30;;
51216;SDS011;37283;49.760;8.648;2022-07-30T19:21:12;5.80;;;1.65;;
51216;SDS011;37283;49.760;8.648;2022-07-30T19:23:39;2.55;;;1.55;;
51216;SDS011;37283;49.760;8.648;2022-07-30T19:26:06;2.30;;;1.40;;
51216;SDS011;37283;49.760;8.648;2022-07-30T19:28:33;3.47;;;1.60;;
51216;SDS011;37283;49.760;8.648;2022-07-30T19:31:01;2.67;;;1.60;;
51216;SDS011;37283;49.760;8.648;2022-07-30T20:48:45;3.90;;;1.60;;
51216;SDS011;37283;49.760;8.648;2022-07-30T20:59:59;4.70;;;1.90;;
51216;SDS011;37283;49.760;8.648;2022-07-30T23:16:49;3.67;;;2.00;;
51216;SDS011;37283;49.760;8.648;2022-07-30T23:19:16;4.28;;;2.00;;
51216;SDS011;37283;49.760;8.648;2022-07-30T23:38:48;4.60;;;1.90;;
51216;SDS011;37283;49.760;8.648;2022-07-30T23:52:00;2.80;;;1.80;;
51216;SDS011;37283;49.760;8.648;2022-07-30T23:54:29;2.57;;;1.90;;
